sensor_id;sensor_type;location;lat;lon;timestamp;P1;durP1;ratioP1;P2;durP2;ratioP2
62990;SDS011;49084;48.204;16.202;2022-11-24T00:00:32;21.02;;;12.50;;
62990;SDS011;49084;48.204;16.202;2022-11-24T00:02:58;20.88;;;11.98;;
62990;SDS011;49084;48.204;16.202;2022-11-24T00:05:24;25.77;;;12.40;;
62990;SDS011;49084;48.204;16.202;2022-11-24T00:07:50;26.50;;;14.57;;
62990;SDS011;49084;48.204;16.202;2022-11-24T00:10:16;24.45;;;12.85;;
62990;SDS011;49084;48.204;16.202;2022-11-24T00:12:42;27.33;;;13.85;;
62990;SDS011;49084;48.204;16.202;2022-11-24T00:15:07;25.33;;;13.35;;
62990;SDS011;49084;48.204;16.202;2022-11-24T00:17:33;23.08;;;14.20;;
62990;SDS011;49084;48.204;16.202;2022-11-24T00:19:59;21.05;;;13.57;;
62990;SDS011;49084;48.204;16.202;2022-11-24T00:22:25;21.20;;;12.85;;
62990;SDS011;49084;48.204;16.202;2022-11-24T00:24:50;23.92;;;13.38;;
62990;SDS011;49084;48.204;16.202;2022-11-24T00:27:16;22.23;;;14.57;;
62990;SDS011;49084;48.204;16.202;2022-11-24T00:29:41;24.88;;;14.43;;
62990;SDS011;49084;48.204;16.202;2022-11-24T00:32:07;29.70;;;14.00;;
62990;SDS011;49084;48.204;16.202;2022-11-24T00:34:33;24.98;;;14.20;;
62990;SDS011;49084;48.204;16.202;2022-11-24T00:36:58;23.40;;;14.15;;
62990;SDS011;49084;48.204;16.202;2022-11-24T00:39:24;25.63;;;14.52;;
62990;SDS011;49084;48.204;16.202;2022-11-24T00:41:50;25.00;;;14.27;;
62990;SDS011;49084;48.204;16.202;2022-11-24T00:44:15;26.02;;;14.43;;
62990;SDS011;49084;48.204;16.202;2022-11-24T00:46:41;23.20;;;13.93;;
62990;SDS011;49084;48.204;16.202;2022-11-24T00:49:07;26.10;;;14.88;;
62990;SDS011;49084;48.204;16.202;2022-11-24T00:51:33;26.92;;;15.90;;
62990;SDS011;49084;48.204;16.202;2022-11-24T00:53:59;23.77;;;15.18;;
62990;SDS011;49084;48.204;16.202;2022-11-24T00:56:25;27.42;;;15.63;;
62990;SDS011;49084;48.204;16.202;2022-11-24T00:58:52;29.13;;;16.08;;
62990;SDS011;49084;48.204;16.202;2022-11-24T01:01:19;23.48;;;14.80;;
62990;SDS011;49084;48.204;16.202;2022-11-24T01:03:47;25.23;;;15.30;;
62990;SDS011;49084;48.204;16.202;2022-11-24T01:06:23;26.02;;;14.77;;
62990;SDS011;49084;48.204;16.202;2022-11-24T01:08:50;25.73;;;15.38;;
62990;SDS011;49084;48.204;16.202;2022-11-24T01:13:47;31.10;;;16.17;;
62990;SDS011;49084;48.204;16.202;2022-11-24T01:16:17;27.33;;;15.27;;
62990;SDS011;49084;48.204;16.202;2022-11-24T01:18:54;27.92;;;17.13;;
62990;SDS011;49084;48.204;16.202;2022-11-24T01:21:20;24.77;;;15.07;;
62990;SDS011;49084;48.204;16.202;2022-11-24T01:23:45;25.02;;;15.20;;
62990;SDS011;49084;48.204;16.202;2022-11-24T01:26:12;27.92;;;16.13;;
62990;SDS011;49084;48.204;16.202;2022-11-24T01:28:40;27.92;;;16.08;;
62990;SDS011;49084;48.204;16.202;2022-11-24T01:31:06;27.27;;;16.10;;
62990;SDS011;49084;48.204;16.202;2022-11-24T01:33:32;24.70;;;15.50;;
62990;SDS011;49084;48.204;16.202;2022-11-24T01:35:58;30.60;;;15.20;;
62990;SDS011;49084;48.204;16.202;2022-11-24T01:38:25;23.80;;;14.73;;
62990;SDS011;49084;48.204;16.202;2022-11-24T01:41:04;26.58;;;15.75;;
62990;SDS011;49084;48.204;16.202;2022-11-24T01:43:34;22.95;;;14.50;;
62990;SDS011;49084;48.204;16.202;2022-11-24T01:51:43;24.88;;;14.52;;
62990;SDS011;49084;48.204;16.202;2022-11-24T01:54:15;24.70;;;14.32;;
62990;SDS011;49084;48.204;16.202;2022-11-24T01:56:47;23.98;;;14.63;;
62990;SDS011;49084;48.204;16.202;2022-11-24T01:59:16;24.08;;;14.30;;
62990;SDS011;49084;48.204;16.202;2022-11-24T02:01:44;23.93;;;14.50;;
62990;SDS011;49084;48.204;16.202;2022-11-24T02:04:13;23.05;;;14.23;;
62990;SDS011;49084;48.204;16.202;2022-11-24T02:06:42;23.85;;;15.15;;
62990;SDS011;49084;48.204;16.202;2022-11-24T02:09:33;27.83;;;15.73;;
62990;SDS011;49084;48.204;16.202;2022-11-24T02:12:04;25.48;;;15.20;;
62990;SDS011;49084;48.204;16.202;2022-11-24T02:14:30;26.65;;;15.73;;
62990;SDS011;49084;48.204;16.202;2022-11-24T02:16:59;27.75;;;16.17;;
62990;SDS011;49084;48.204;16.202;2022-11-24T02:19:42;29.50;;;16.45;;
62990;SDS011;49084;48.204;16.202;2022-11-24T02:25:05;28.67;;;17.33;;
62990;SDS011;49084;48.204;16.202;2022-11-24T02:27:50;30.58;;;18.67;;
62990;SDS011;49084;48.204;16.202;2022-11-24T02:30:17;30.52;;;18.23;;
62990;SDS011;49084;48.204;16.202;2022-11-24T02:32:42;31.98;;;18.98;;
62990;SDS011;49084;48.204;16.202;2022-11-24T02:35:09;36.60;;;19.00;;
62990;SDS011;49084;48.204;16.202;2022-11-24T02:37:35;33.38;;;18.83;;
62990;SDS011;49084;48.204;16.202;2022-11-24T02:40:01;38.63;;;20.48;;
62990;SDS011;49084;48.204;16.202;2022-11-24T02:42:27;31.65;;;18.45;;
62990;SDS011;49084;48.204;16.202;2022-11-24T02:44:59;33.25;;;18.73;;
62990;SDS011;49084;48.204;16.202;2022-11-24T02:47:25;29.90;;;17.13;;
62990;SDS011;49084;48.204;16.202;2022-11-24T02:49:51;28.63;;;17.02;;
62990;SDS011;49084;48.204;16.202;2022-11-24T02:52:17;28.52;;;16.52;;
62990;SDS011;49084;48.204;16.202;2022-11-24T02:54:43;29.45;;;16.20;;
62990;SDS011;49084;48.204;16.202;2022-11-24T02:57:09;27.63;;;16.40;;
62990;SDS011;49084;48.204;16.202;2022-11-24T02:59:35;27.77;;;16.67;;
62990;SDS011;49084;48.204;16.202;2022-11-24T03:02:01;28.42;;;15.00;;
62990;SDS011;49084;48.204;16.202;2022-11-24T03:04:27;27.35;;;15.98;;
62990;SDS011;49084;48.204;16.202;2022-11-24T03:06:52;21.25;;;13.95;;
62990;SDS011;49084;48.204;16.202;2022-11-24T03:09:18;24.55;;;13.98;;
62990;SDS011;49084;48.204;16.202;2022-11-24T03:11:44;25.40;;;13.98;;
62990;SDS011;49084;48.204;16.202;2022-11-24T03:14:10;21.02;;;13.25;;
62990;SDS011;49084;48.204;16.202;2022-11-24T03:16:36;20.98;;;13.15;;
62990;SDS011;49084;48.204;16.202;2022-11-24T03:19:02;19.95;;;12.05;;
62990;SDS011;49084;48.204;16.202;2022-11-24T03:21:28;19.73;;;11.82;;
62990;SDS011;49084;48.204;16.202;2022-11-24T03:23:54;22.00;;;13.07;;
62990;SDS011;49084;48.204;16.202;2022-11-24T03:26:20;20.10;;;12.57;;
62990;SDS011;49084;48.204;16.202;2022-11-24T03:28:47;21.85;;;12.43;;
62990;SDS011;49084;48.204;16.202;2022-11-24T03:31:13;20.70;;;12.90;;
62990;SDS011;49084;48.204;16.202;2022-11-24T03:33:39;21.45;;;12.00;;
62990;SDS011;49084;48.204;16.202;2022-11-24T03:36:05;21.35;;;12.98;;
62990;SDS011;49084;48.204;16.202;2022-11-24T03:38:31;17.77;;;12.35;;
62990;SDS011;49084;48.204;16.202;2022-11-24T03:40:57;19.20;;;12.65;;
62990;SDS011;49084;48.204;16.202;2022-11-24T03:43:23;22.70;;;13.43;;
62990;SDS011;49084;48.204;16.202;2022-11-24T03:45:48;20.95;;;13.20;;
62990;SDS011;49084;48.204;16.202;2022-11-24T03:48:15;22.88;;;13.27;;
62990;SDS011;49084;48.204;16.202;2022-11-24T03:50:42;26.17;;;13.88;;
62990;SDS011;49084;48.204;16.202;2022-11-24T03:53:08;24.05;;;12.80;;
62990;SDS011;49084;48.204;16.202;2022-11-24T03:55:34;23.40;;;13.98;;
62990;SDS011;49084;48.204;16.202;2022-11-24T03:58:00;22.77;;;13.57;;
62990;SDS011;49084;48.204;16.202;2022-11-24T04:00:26;23.60;;;14.10;;
62990;SDS011;49084;48.204;16.202;2022-11-24T04:02:52;23.50;;;13.13;;
62990;SDS011;49084;48.204;16.202;2022-11-24T04:05:18;23.00;;;13.60;;
62990;SDS011;49084;48.204;16.202;2022-11-24T04:07:43;23.65;;;13.55;;
62990;SDS011;49084;48.204;16.202;2022-11-24T04:10:09;25.05;;;14.55;;
62990;SDS011;49084;48.204;16.202;2022-11-24T04:12:35;26.02;;;13.77;;
62990;SDS011;49084;48.204;16.202;2022-11-24T04:15:10;23.63;;;14.20;;
62990;SDS011;49084;48.204;16.202;2022-11-24T04:17:37;24.67;;;13.98;;
62990;SDS011;49084;48.204;16.202;2022-11-24T04:20:03;22.35;;;12.70;;
62990;SDS011;49084;48.204;16.202;2022-11-24T04:22:29;24.70;;;13.30;;
62990;SDS011;49084;48.204;16.202;2022-11-24T04:24:55;21.83;;;12.63;;
62990;SDS011;49084;48.204;16.202;2022-11-24T04:27:21;22.25;;;12.52;;
62990;SDS011;49084;48.204;16.202;2022-11-24T04:29:46;22.77;;;13.40;;
62990;SDS011;49084;48.204;16.202;2022-11-24T04:32:12;21.95;;;13.07;;
62990;SDS011;49084;48.204;16.202;2022-11-24T04:34:37;20.55;;;12.20;;
62990;SDS011;49084;48.204;16.202;2022-11-24T04:37:03;22.48;;;12.40;;
62990;SDS011;49084;48.204;16.202;2022-11-24T04:39:29;21.25;;;12.07;;
62990;SDS011;49084;48.204;16.202;2022-11-24T04:41:54;21.80;;;12.85;;
62990;SDS011;49084;48.204;16.202;2022-11-24T04:44:20;20.45;;;11.35;;
62990;SDS011;49084;48.204;16.202;2022-11-24T04:46:46;19.15;;;10.98;;
62990;SDS011;49084;48.204;16.202;2022-11-24T04:49:11;19.02;;;11.13;;
62990;SDS011;49084;48.204;16.202;2022-11-24T04:51:38;18.58;;;11.40;;
62990;SDS011;49084;48.204;16.202;2022-11-24T04:54:04;20.00;;;11.30;;
62990;SDS011;49084;48.204;16.202;2022-11-24T04:56:31;19.30;;;10.40;;
62990;SDS011;49084;48.204;16.202;2022-11-24T04:58:57;17.17;;;10.73;;
62990;SDS011;49084;48.204;16.202;2022-11-24T05:01:23;17.67;;;10.95;;
62990;SDS011;49084;48.204;16.202;2022-11-24T05:03:51;16.25;;;10.80;;
62990;SDS011;49084;48.204;16.202;2022-11-24T05:06:18;17.80;;;10.20;;
62990;SDS011;49084;48.204;16.202;2022-11-24T05:08:48;14.05;;;9.35;;
62990;SDS011;49084;48.204;16.202;2022-11-24T05:11:15;16.10;;;10.73;;
62990;SDS011;49084;48.204;16.202;2022-11-24T05:13:41;16.52;;;9.98;;
62990;SDS011;49084;48.204;16.202;2022-11-24T05:16:06;14.88;;;9.32;;
62990;SDS011;49084;48.204;16.202;2022-11-24T05:18:32;13.98;;;8.98;;
62990;SDS011;49084;48.204;16.202;2022-11-24T05:20:59;12.98;;;8.25;;
62990;SDS011;49084;48.204;16.202;2022-11-24T05:23:25;13.82;;;8.85;;
62990;SDS011;49084;48.204;16.202;2022-11-24T05:25:51;11.95;;;7.90;;
62990;SDS011;49084;48.204;16.202;2022-11-24T05:28:17;13.45;;;8.27;;
62990;SDS011;49084;48.204;16.202;2022-11-24T05:30:43;12.73;;;8.38;;
62990;SDS011;49084;48.204;16.202;2022-11-24T05:33:11;15.75;;;8.77;;
62990;SDS011;49084;48.204;16.202;2022-11-24T05:35:43;12.45;;;8.02;;
62990;SDS011;49084;48.204;16.202;2022-11-24T05:38:09;12.55;;;7.88;;
62990;SDS011;49084;48.204;16.202;2022-11-24T05:40:35;11.13;;;7.72;;
62990;SDS011;49084;48.204;16.202;2022-11-24T05:43:01;11.10;;;7.15;;
62990;SDS011;49084;48.204;16.202;2022-11-24T05:45:27;8.40;;;6.35;;
62990;SDS011;49084;48.204;16.202;2022-11-24T05:47:52;12.65;;;7.53;;
62990;SDS011;49084;48.204;16.202;2022-11-24T05:50:19;10.57;;;7.75;;
62990;SDS011;49084;48.204;16.202;2022-11-24T05:52:46;10.45;;;7.20;;
62990;SDS011;49084;48.204;16.202;2022-11-24T05:55:13;8.90;;;6.25;;
62990;SDS011;49084;48.204;16.202;2022-11-24T05:57:39;8.52;;;6.07;;
62990;SDS011;49084;48.204;16.202;2022-11-24T06:00:05;10.05;;;7.00;;
62990;SDS011;49084;48.204;16.202;2022-11-24T06:02:33;9.07;;;6.53;;
62990;SDS011;49084;48.204;16.202;2022-11-24T06:04:58;10.68;;;7.20;;
62990;SDS011;49084;48.204;16.202;2022-11-24T06:07:24;9.57;;;6.18;;
62990;SDS011;49084;48.204;16.202;2022-11-24T06:09:50;8.90;;;6.15;;
62990;SDS011;49084;48.204;16.202;2022-11-24T06:12:15;10.05;;;6.63;;
62990;SDS011;49084;48.204;16.202;2022-11-24T06:14:41;8.38;;;5.93;;
62990;SDS011;49084;48.204;16.202;2022-11-24T06:17:08;8.57;;;6.63;;
62990;SDS011;49084;48.204;16.202;2022-11-24T06:19:34;8.85;;;5.85;;
62990;SDS011;49084;48.204;16.202;2022-11-24T06:22:00;6.97;;;5.30;;
62990;SDS011;49084;48.204;16.202;2022-11-24T06:24:26;7.88;;;5.40;;
62990;SDS011;49084;48.204;16.202;2022-11-24T06:26:51;6.72;;;4.88;;
62990;SDS011;49084;48.204;16.202;2022-11-24T06:29:17;8.38;;;5.50;;
62990;SDS011;49084;48.204;16.202;2022-11-24T06:31:43;8.25;;;5.18;;
62990;SDS011;49084;48.204;16.202;2022-11-24T06:34:09;6.63;;;5.00;;
62990;SDS011;49084;48.204;16.202;2022-11-24T06:36:39;4.70;;;3.75;;
62990;SDS011;49084;48.204;16.202;2022-11-24T06:39:05;5.97;;;4.60;;
62990;SDS011;49084;48.204;16.202;2022-11-24T06:41:31;6.45;;;4.25;;
62990;SDS011;49084;48.204;16.202;2022-11-24T06:43:57;7.80;;;4.63;;
62990;SDS011;49084;48.204;16.202;2022-11-24T06:46:23;8.90;;;4.50;;
62990;SDS011;49084;48.204;16.202;2022-11-24T06:48:51;5.53;;;3.63;;
62990;SDS011;49084;48.204;16.202;2022-11-24T06:53:43;5.60;;;4.10;;
62990;SDS011;49084;48.204;16.202;2022-11-24T06:56:10;5.15;;;4.38;;
62990;SDS011;49084;48.204;16.202;2022-11-24T06:58:42;5.05;;;4.10;;
62990;SDS011;49084;48.204;16.202;2022-11-24T07:01:13;6.72;;;4.25;;
62990;SDS011;49084;48.204;16.202;2022-11-24T07:03:40;6.57;;;4.75;;
62990;SDS011;49084;48.204;16.202;2022-11-24T07:06:06;4.70;;;3.90;;
62990;SDS011;49084;48.204;16.202;2022-11-24T07:08:31;5.57;;;4.22;;
62990;SDS011;49084;48.204;16.202;2022-11-24T07:11:02;7.40;;;4.43;;
62990;SDS011;49084;48.204;16.202;2022-11-24T07:13:29;4.82;;;3.72;;
62990;SDS011;49084;48.204;16.202;2022-11-24T07:15:55;4.97;;;3.70;;
62990;SDS011;49084;48.204;16.202;2022-11-24T07:18:20;4.72;;;4.18;;
62990;SDS011;49084;48.204;16.202;2022-11-24T07:20:46;5.32;;;4.25;;
62990;SDS011;49084;48.204;16.202;2022-11-24T07:23:12;6.32;;;4.22;;
62990;SDS011;49084;48.204;16.202;2022-11-24T07:25:37;5.50;;;3.72;;
62990;SDS011;49084;48.204;16.202;2022-11-24T07:28:03;4.30;;;3.30;;
62990;SDS011;49084;48.204;16.202;2022-11-24T07:30:29;6.47;;;3.92;;
62990;SDS011;49084;48.204;16.202;2022-11-24T07:33:01;4.90;;;3.90;;
62990;SDS011;49084;48.204;16.202;2022-11-24T07:35:28;5.63;;;3.75;;
62990;SDS011;49084;48.204;16.202;2022-11-24T07:37:57;6.18;;;3.33;;
62990;SDS011;49084;48.204;16.202;2022-11-24T07:42:50;3.83;;;3.05;;
62990;SDS011;49084;48.204;16.202;2022-11-24T07:45:15;8.82;;;3.95;;
62990;SDS011;49084;48.204;16.202;2022-11-24T07:47:41;4.68;;;3.95;;
62990;SDS011;49084;48.204;16.202;2022-11-24T07:50:07;7.70;;;3.95;;
62990;SDS011;49084;48.204;16.202;2022-11-24T07:52:34;5.05;;;3.78;;
62990;SDS011;49084;48.204;16.202;2022-11-24T08:01:27;4.32;;;3.22;;
62990;SDS011;49084;48.204;16.202;2022-11-24T08:03:53;7.03;;;4.45;;
62990;SDS011;49084;48.204;16.202;2022-11-24T08:06:18;5.95;;;3.95;;
62990;SDS011;49084;48.204;16.202;2022-11-24T08:08:44;4.70;;;3.90;;
62990;SDS011;49084;48.204;16.202;2022-11-24T08:11:11;6.78;;;3.88;;
62990;SDS011;49084;48.204;16.202;2022-11-24T08:17:15;5.93;;;3.92;;
62990;SDS011;49084;48.204;16.202;2022-11-24T08:19:41;5.82;;;3.70;;
62990;SDS011;49084;48.204;16.202;2022-11-24T08:22:07;5.88;;;4.03;;
62990;SDS011;49084;48.204;16.202;2022-11-24T08:24:33;5.88;;;3.00;;
62990;SDS011;49084;48.204;16.202;2022-11-24T08:26:58;6.63;;;3.63;;
62990;SDS011;49084;48.204;16.202;2022-11-24T08:29:28;6.78;;;3.97;;
62990;SDS011;49084;48.204;16.202;2022-11-24T08:31:54;6.90;;;4.20;;
62990;SDS011;49084;48.204;16.202;2022-11-24T08:34:21;5.43;;;3.80;;
62990;SDS011;49084;48.204;16.202;2022-11-24T08:36:48;5.60;;;4.00;;
62990;SDS011;49084;48.204;16.202;2022-11-24T08:39:15;8.88;;;4.45;;
62990;SDS011;49084;48.204;16.202;2022-11-24T08:41:40;6.13;;;4.00;;
62990;SDS011;49084;48.204;16.202;2022-11-24T08:44:06;8.07;;;4.10;;
62990;SDS011;49084;48.204;16.202;2022-11-24T08:46:34;6.68;;;4.65;;
62990;SDS011;49084;48.204;16.202;2022-11-24T08:49:00;8.32;;;5.05;;
62990;SDS011;49084;48.204;16.202;2022-11-24T08:51:26;8.02;;;5.28;;
62990;SDS011;49084;48.204;16.202;2022-11-24T08:53:53;7.40;;;4.80;;
62990;SDS011;49084;48.204;16.202;2022-11-24T08:56:20;7.95;;;4.80;;
62990;SDS011;49084;48.204;16.202;2022-11-24T08:58:45;9.52;;;5.50;;
62990;SDS011;49084;48.204;16.202;2022-11-24T09:01:14;7.68;;;5.57;;
62990;SDS011;49084;48.204;16.202;2022-11-24T09:03:42;10.32;;;5.13;;
62990;SDS011;49084;48.204;16.202;2022-11-24T09:06:09;7.03;;;4.88;;
62990;SDS011;49084;48.204;16.202;2022-11-24T09:08:35;9.18;;;5.80;;
62990;SDS011;49084;48.204;16.202;2022-11-24T09:11:05;10.50;;;6.50;;
62990;SDS011;49084;48.204;16.202;2022-11-24T09:13:32;10.25;;;5.93;;
62990;SDS011;49084;48.204;16.202;2022-11-24T09:16:02;10.80;;;6.93;;
62990;SDS011;49084;48.204;16.202;2022-11-24T09:18:29;10.23;;;6.80;;
62990;SDS011;49084;48.204;16.202;2022-11-24T09:21:04;10.35;;;6.25;;
62990;SDS011;49084;48.204;16.202;2022-11-24T09:23:40;10.32;;;6.30;;
62990;SDS011;49084;48.204;16.202;2022-11-24T09:26:11;15.98;;;7.32;;
62990;SDS011;49084;48.204;16.202;2022-11-24T09:32:01;10.60;;;7.47;;
62990;SDS011;49084;48.204;16.202;2022-11-24T09:34:27;12.35;;;8.38;;
62990;SDS011;49084;48.204;16.202;2022-11-24T09:36:53;14.10;;;8.38;;
62990;SDS011;49084;48.204;16.202;2022-11-24T09:39:18;17.02;;;8.82;;
62990;SDS011;49084;48.204;16.202;2022-11-24T09:50:47;14.35;;;8.85;;
62990;SDS011;49084;48.204;16.202;2022-11-24T09:58:48;16.33;;;9.25;;
62990;SDS011;49084;48.204;16.202;2022-11-24T10:03:50;17.92;;;8.60;;
62990;SDS011;49084;48.204;16.202;2022-11-24T10:06:24;17.73;;;8.60;;
62990;SDS011;49084;48.204;16.202;2022-11-24T10:11:37;13.75;;;8.95;;
62990;SDS011;49084;48.204;16.202;2022-11-24T10:19:52;16.52;;;8.80;;
62990;SDS011;49084;48.204;16.202;2022-11-24T10:23:16;18.17;;;9.50;;
62990;SDS011;49084;48.204;16.202;2022-11-24T10:28:04;16.50;;;10.25;;
62990;SDS011;49084;48.204;16.202;2022-11-24T10:30:35;17.23;;;10.25;;
62990;SDS011;49084;48.204;16.202;2022-11-24T10:33:15;15.45;;;10.18;;
62990;SDS011;49084;48.204;16.202;2022-11-24T10:35:51;13.65;;;9.88;;
62990;SDS011;49084;48.204;16.202;2022-11-24T10:39:04;13.38;;;8.57;;
62990;SDS011;49084;48.204;16.202;2022-11-24T10:41:50;13.40;;;8.05;;
62990;SDS011;49084;48.204;16.202;2022-11-24T10:44:37;11.50;;;7.03;;
62990;SDS011;49084;48.204;16.202;2022-11-24T10:47:10;13.57;;;8.60;;
62990;SDS011;49084;48.204;16.202;2022-11-24T10:49:45;12.43;;;7.93;;
62990;SDS011;49084;48.204;16.202;2022-11-24T10:52:24;22.52;;;10.95;;
62990;SDS011;49084;48.204;16.202;2022-11-24T10:54:53;16.88;;;9.43;;
62990;SDS011;49084;48.204;16.202;2022-11-24T10:57:28;18.52;;;9.85;;
62990;SDS011;49084;48.204;16.202;2022-11-24T11:00:11;15.05;;;8.77;;
62990;SDS011;49084;48.204;16.202;2022-11-24T11:03:30;14.20;;;8.70;;
62990;SDS011;49084;48.204;16.202;2022-11-24T11:06:00;12.30;;;8.60;;
62990;SDS011;49084;48.204;16.202;2022-11-24T11:08:34;13.13;;;9.02;;
62990;SDS011;49084;48.204;16.202;2022-11-24T11:11:21;19.42;;;9.18;;
62990;SDS011;49084;48.204;16.202;2022-11-24T11:22:01;18.83;;;8.85;;
62990;SDS011;49084;48.204;16.202;2022-11-24T11:24:39;16.70;;;8.57;;
62990;SDS011;49084;48.204;16.202;2022-11-24T11:29:49;12.00;;;7.30;;
62990;SDS011;49084;48.204;16.202;2022-11-24T11:34:44;13.98;;;7.65;;
62990;SDS011;49084;48.204;16.202;2022-11-24T11:37:11;13.50;;;7.00;;
62990;SDS011;49084;48.204;16.202;2022-11-24T11:39:47;14.38;;;8.10;;
62990;SDS011;49084;48.204;16.202;2022-11-24T11:45:44;15.32;;;7.18;;
62990;SDS011;49084;48.204;16.202;2022-11-24T12:18:32;15.88;;;8.65;;
62990;SDS011;49084;48.204;16.202;2022-11-24T12:24:06;16.00;;;8.68;;
62990;SDS011;49084;48.204;16.202;2022-11-24T12:26:54;12.70;;;7.85;;
62990;SDS011;49084;48.204;16.202;2022-11-24T12:51:16;14.85;;;6.47;;
62990;SDS011;49084;48.204;16.202;2022-11-24T12:53:47;10.93;;;6.05;;
62990;SDS011;49084;48.204;16.202;2022-11-24T12:56:15;10.82;;;6.07;;
62990;SDS011;49084;48.204;16.202;2022-11-24T13:07:04;11.88;;;7.25;;
62990;SDS011;49084;48.204;16.202;2022-11-24T13:10:20;11.27;;;6.15;;
62990;SDS011;49084;48.204;16.202;2022-11-24T13:15:17;11.70;;;7.20;;
62990;SDS011;49084;48.204;16.202;2022-11-24T13:17:43;10.43;;;6.30;;
62990;SDS011;49084;48.204;16.202;2022-11-24T13:20:19;8.90;;;7.05;;
62990;SDS011;49084;48.204;16.202;2022-11-24T13:23:04;15.00;;;7.18;;
62990;SDS011;49084;48.204;16.202;2022-11-24T13:25:44;11.60;;;6.72;;
62990;SDS011;49084;48.204;16.202;2022-11-24T13:28:58;10.00;;;5.57;;
62990;SDS011;49084;48.204;16.202;2022-11-24T13:31:26;10.25;;;5.35;;
62990;SDS011;49084;48.204;16.202;2022-11-24T13:33:52;11.48;;;5.82;;
62990;SDS011;49084;48.204;16.202;2022-11-24T13:49:21;8.00;;;3.80;;
62990;SDS011;49084;48.204;16.202;2022-11-24T13:51:47;9.75;;;3.85;;
62990;SDS011;49084;48.204;16.202;2022-11-24T13:54:16;12.07;;;4.13;;
62990;SDS011;49084;48.204;16.202;2022-11-24T13:56:42;10.32;;;4.32;;
62990;SDS011;49084;48.204;16.202;2022-11-24T13:59:16;11.43;;;4.53;;
62990;SDS011;49084;48.204;16.202;2022-11-24T14:01:54;11.80;;;4.45;;
62990;SDS011;49084;48.204;16.202;2022-11-24T14:04:21;16.05;;;7.13;;
62990;SDS011;49084;48.204;16.202;2022-11-24T14:06:54;7.70;;;3.73;;
62990;SDS011;49084;48.204;16.202;2022-11-24T14:09:27;9.27;;;5.32;;
62990;SDS011;49084;48.204;16.202;2022-11-24T14:12:07;15.80;;;7.70;;
62990;SDS011;49084;48.204;16.202;2022-11-24T14:14:43;12.20;;;5.95;;
62990;SDS011;49084;48.204;16.202;2022-11-24T14:17:14;12.07;;;6.32;;
62990;SDS011;49084;48.204;16.202;2022-11-24T14:19:46;8.40;;;4.47;;
62990;SDS011;49084;48.204;16.202;2022-11-24T14:22:23;4.78;;;3.50;;
62990;SDS011;49084;48.204;16.202;2022-11-24T14:24:56;6.30;;;3.25;;
62990;SDS011;49084;48.204;16.202;2022-11-24T14:27:25;5.03;;;2.80;;
62990;SDS011;49084;48.204;16.202;2022-11-24T14:32:34;7.78;;;3.90;;
62990;SDS011;49084;48.204;16.202;2022-11-24T14:35:14;6.93;;;4.28;;
62990;SDS011;49084;48.204;16.202;2022-11-24T14:37:48;7.25;;;3.28;;
62990;SDS011;49084;48.204;16.202;2022-11-24T14:40:56;10.73;;;3.25;;
62990;SDS011;49084;48.204;16.202;2022-11-24T14:43:23;7.85;;;3.80;;
62990;SDS011;49084;48.204;16.202;2022-11-24T14:45:55;4.03;;;3.00;;
62990;SDS011;49084;48.204;16.202;2022-11-24T14:48:36;6.03;;;3.40;;
62990;SDS011;49084;48.204;16.202;2022-11-24T14:51:07;7.70;;;3.60;;
62990;SDS011;49084;48.204;16.202;2022-11-24T14:53:45;9.48;;;4.93;;
62990;SDS011;49084;48.204;16.202;2022-11-24T14:56:22;7.05;;;4.65;;
62990;SDS011;49084;48.204;16.202;2022-11-24T14:58:53;10.07;;;4.32;;
62990;SDS011;49084;48.204;16.202;2022-11-24T15:06:42;10.73;;;3.58;;
62990;SDS011;49084;48.204;16.202;2022-11-24T15:09:24;8.68;;;4.30;;
62990;SDS011;49084;48.204;16.202;2022-11-24T15:11:56;9.07;;;4.22;;
62990;SDS011;49084;48.204;16.202;2022-11-24T15:16:56;8.77;;;4.40;;
62990;SDS011;49084;48.204;16.202;2022-11-24T15:19:29;10.70;;;4.13;;
62990;SDS011;49084;48.204;16.202;2022-11-24T15:21:58;10.32;;;4.28;;
62990;SDS011;49084;48.204;16.202;2022-11-24T15:24:23;9.02;;;4.10;;
62990;SDS011;49084;48.204;16.202;2022-11-24T15:26:49;9.05;;;4.13;;
62990;SDS011;49084;48.204;16.202;2022-11-24T15:29:24;6.65;;;4.38;;
62990;SDS011;49084;48.204;16.202;2022-11-24T15:31:49;9.25;;;4.90;;
62990;SDS011;49084;48.204;16.202;2022-11-24T15:34:15;11.20;;;6.10;;
62990;SDS011;49084;48.204;16.202;2022-11-24T15:36:41;12.60;;;6.32;;
62990;SDS011;49084;48.204;16.202;2022-11-24T15:39:06;11.52;;;6.70;;
62990;SDS011;49084;48.204;16.202;2022-11-24T15:41:32;11.63;;;6.22;;
62990;SDS011;49084;48.204;16.202;2022-11-24T15:43:58;13.20;;;7.30;;
62990;SDS011;49084;48.204;16.202;2022-11-24T15:46:25;12.20;;;7.15;;
62990;SDS011;49084;48.204;16.202;2022-11-24T15:48:51;9.80;;;6.95;;
62990;SDS011;49084;48.204;16.202;2022-11-24T15:51:20;16.25;;;8.07;;
62990;SDS011;49084;48.204;16.202;2022-11-24T15:53:49;14.27;;;7.35;;
62990;SDS011;49084;48.204;16.202;2022-11-24T15:56:22;10.88;;;7.13;;
62990;SDS011;49084;48.204;16.202;2022-11-24T15:58:49;8.70;;;5.65;;
62990;SDS011;49084;48.204;16.202;2022-11-24T16:01:15;7.70;;;5.55;;
62990;SDS011;49084;48.204;16.202;2022-11-24T16:03:41;8.98;;;4.88;;
62990;SDS011;49084;48.204;16.202;2022-11-24T16:06:07;7.40;;;4.68;;
62990;SDS011;49084;48.204;16.202;2022-11-24T16:08:40;7.38;;;3.97;;
62990;SDS011;49084;48.204;16.202;2022-11-24T16:11:06;8.05;;;4.70;;
62990;SDS011;49084;48.204;16.202;2022-11-24T16:13:31;6.85;;;4.00;;
62990;SDS011;49084;48.204;16.202;2022-11-24T16:15:57;6.07;;;3.78;;
62990;SDS011;49084;48.204;16.202;2022-11-24T16:18:23;7.07;;;3.72;;
62990;SDS011;49084;48.204;16.202;2022-11-24T16:20:48;8.38;;;4.07;;
62990;SDS011;49084;48.204;16.202;2022-11-24T16:23:14;9.60;;;5.10;;
62990;SDS011;49084;48.204;16.202;2022-11-24T16:25:40;11.73;;;5.15;;
62990;SDS011;49084;48.204;16.202;2022-11-24T16:28:06;9.45;;;4.97;;
62990;SDS011;49084;48.204;16.202;2022-11-24T16:30:32;9.80;;;5.60;;
62990;SDS011;49084;48.204;16.202;2022-11-24T16:32:58;7.75;;;4.40;;
62990;SDS011;49084;48.204;16.202;2022-11-24T16:35:26;7.88;;;4.75;;
62990;SDS011;49084;48.204;16.202;2022-11-24T16:37:52;9.98;;;5.00;;
62990;SDS011;49084;48.204;16.202;2022-11-24T16:40:18;9.70;;;5.22;;
62990;SDS011;49084;48.204;16.202;2022-11-24T16:42:43;11.57;;;6.40;;
62990;SDS011;49084;48.204;16.202;2022-11-24T16:45:10;12.55;;;6.00;;
62990;SDS011;49084;48.204;16.202;2022-11-24T16:47:37;12.98;;;7.05;;
62990;SDS011;49084;48.204;16.202;2022-11-24T16:50:05;10.02;;;6.13;;
62990;SDS011;49084;48.204;16.202;2022-11-24T16:52:35;9.95;;;5.18;;
62990;SDS011;49084;48.204;16.202;2022-11-24T16:55:01;7.43;;;5.28;;
62990;SDS011;49084;48.204;16.202;2022-11-24T16:57:28;13.80;;;5.55;;
62990;SDS011;49084;48.204;16.202;2022-11-24T16:59:53;13.82;;;6.28;;
62990;SDS011;49084;48.204;16.202;2022-11-24T17:02:20;14.52;;;6.63;;
62990;SDS011;49084;48.204;16.202;2022-11-24T17:04:46;12.85;;;6.65;;
62990;SDS011;49084;48.204;16.202;2022-11-24T17:07:16;11.48;;;6.18;;
62990;SDS011;49084;48.204;16.202;2022-11-24T17:09:42;11.35;;;6.13;;
62990;SDS011;49084;48.204;16.202;2022-11-24T17:12:08;9.32;;;6.10;;
62990;SDS011;49084;48.204;16.202;2022-11-24T17:14:34;11.30;;;6.38;;